Weather reports worldwide

Advertisment
Klippeneck, Germany (10818): temperature & dewpoint: 18.06.2018 16:00:00 - 24.06.2018 16:00:00 (CEST)Klippeneck, Germany (10818): temperature 5cm & temperature -5cm: 18.06.2018 16:00:00 - 24.06.2018 16:00:00 (CEST)Klippeneck, Germany (10818): temperature -20cm & temperature -100cm: 18.06.2018 16:00:00 - 24.06.2018 16:00:00 (CEST)Klippeneck, Germany (10818): wind speed & gusts: 18.06.2018 16:00:00 - 24.06.2018 16:00:00 (CEST)Klippeneck, Germany (10818): wind direction: 18.06.2018 16:00:00 - 24.06.2018 16:00:00 (CEST)Klippeneck, Germany (10818): visibility: 18.06.2018 16:00:00 - 24.06.2018 16:00:00 (CEST)Klippeneck, Germany (10818): sunshine duration: 18.06.2018 16:00:00 - 24.06.2018 16:00:00 (CEST)Klippeneck, Germany (10818): precipitation: 18.06.2018 16:00:00 - 24.06.2018 16:00:00 (CEST)
Date & Time tt [°C] td [°C] tt 5cm [°C] tt -5cm [°C] tt -20cm [°C] tt -100cm [°C] ff [km/h] ff [kn] fx [km/h] fx [kn] dd vv [km] sd [min] rr [mm]
24.06.2018 16:00:00 16,7 5,8 21,2 29,6 19,9 15,2 14 8 24 13 NW 36 36 0,0
24.06.2018 15:00:00 16,2 6,6 21,3 28,4 19,4 15,2 10 5 26 14 NW 50 8 0,0
24.06.2018 14:00:00 15,6 6,6 21,1 28,5 19,0 15,2 15 8 28 15 NW 46 38 0,0
24.06.2018 13:00:00 16,0 7,9 21,3 26,7 18,6 15,1 9 5 25 13 W 57 54 0,0
24.06.2018 12:00:00 13,2 7,4 17,2 23,4 18,4 15,2 13 7 21 11 NW 39 43 0,0
24.06.2018 11:00:00 12,8 7,2 16,3 21,1 18,3 15,2 9 5 16 9 NW 35 25 0,0
24.06.2018 10:00:00 11,3 7,1 13,8 19,0 18,3 15,2 7 4 13 7 WNW 29 23 0,0
24.06.2018 09:00:00 10,1 5,6 14,9 17,0 18,4 15,2 6 3 11 6 NW 36 60 0,0
24.06.2018 08:00:00 11,5 6,7 12,6 15,0 18,6 15,2 4 2 8 4 SE 52 26 0,0
24.06.2018 07:00:00 9,6 5,9 9,7 14,1 18,9 15,2 5 3 9 5 ENE 48 12 0,0
24.06.2018 06:00:00 8,4 5,4 7,8 14,0 19,2 15,2 8 4 11 6 ENE 40 0 0,0
24.06.2018 05:00:00 7,9 5,0 7,6 14,2 19,5 15,2 10 5 14 8 ENE 26 0 0,0
24.06.2018 04:00:00 8,0 5,2 8,0 14,5 19,9 15,2 11 6 16 9 E 26 0 0,0
24.06.2018 03:00:00 7,6 5,2 7,0 14,7 20,2 15,2 13 7 18 10 E 27 0 0,0
24.06.2018 02:00:00 8,1 5,4 7,3 15,4 20,6 15,2 9 5 19 10 E 35 0 0,0
24.06.2018 01:00:00 8,5 5,6 7,7 16,2 21,0 15,1 10 6 22 12 E 38 0 0,0
24.06.2018 00:00:00 9,3 6,0 8,5 17,1 21,3 15,1 11 6 20 11 ENE 47 0 0,0
23.06.2018 23:00:00 9,7 4,7 8,6 18,2 21,6 15,1 10 6 18 10 ENE 66 0 0,0
23.06.2018 22:00:00 10,9 4,7 9,9 19,8 21,7 15,1 12 7 18 10 ENE 70 0 0,0
23.06.2018 21:00:00 12,6 5,2 11,8 21,9 21,7 15,1 8 4 23 12 NE 70 60 0,0
23.06.2018 20:00:00 14,0 5,3 13,8 24,7 21,5 15,1 9 5 22 12 N 63 60 0,0
23.06.2018 19:00:00 15,5 5,2 16,8 27,1 21,2 15,1 10 5 30 16 NNW 47 53 0,0
23.06.2018 18:00:00 17,1 6,4 20,7 28,6 20,8 15,1 10 6 27 15 NNW 28 46 0,0
23.06.2018 17:00:00 15,0 4,9 17,1 29,6 20,3 15,1 12 6 27 14 NNW 70 52 0,0
23.06.2018 16:00:00 16,1 4,8 19,8 29,5 19,7 15,1 10 6 22 12 N 32 57 0,0
23.06.2018 15:00:00 15,3 4,0 19,6 29,0 19,1 15,1 10 5 30 16 NW 36 57 0,0
23.06.2018 14:00:00 14,7 3,9 19,5 28,5 18,6 15,1 12 7 24 13 NW 30 60 0,0
23.06.2018 13:00:00 13,4 4,0 19,4 26,7 18,2 15,1 10 6 31 17 WNW 48 59 0,0
23.06.2018 12:00:00 13,3 4,8 18,4 23,6 17,8 15,1 10 6 23 13 NW 53 49 0,0
23.06.2018 11:00:00 11,4 2,8 16,5 21,7 17,7 15,1 8 5 16 9 WNW 33 60 0,0
23.06.2018 10:00:00 10,5 4,0 14,6 18,5 17,7 15,1 7 4 14 8 W 46 57 0,0
23.06.2018 09:00:00 8,4 3,9 12,6 15,5 17,8 15,1 6 4 10 5 NW 35 57 0,0
23.06.2018 08:00:00 8,4 3,4 11,4 13,3 18,1 15,1 6 3 14 8 N 57 60 0,0
23.06.2018 07:00:00 7,1 4,0 7,6 11,7 18,5 15,1 10 5 16 8 E 41 51 0,0
23.06.2018 06:00:00 5,4 3,0 4,4 11,7 18,8 15,0 9 5 16 9 ENE 37 0 0,0
23.06.2018 05:00:00 5,5 3,0 4,2 12,1 19,2 15,0 12 6 14 8 E 43 0 0,0
23.06.2018 04:00:00 5,9 3,3 4,8 12,7 19,6 15,0 11 6 13 7 ENE 54 0 0,0
23.06.2018 03:00:00 5,7 3,2 4,0 13,1 20,0 15,0 6 4 11 6 ENE 48 0 0,0
23.06.2018 02:00:00 5,8 2,9 4,4 13,9 20,4 15,0 6 3 14 7 NE 51 0 0,0
23.06.2018 01:00:00 7,3 3,0 5,6 14,7 20,8 15,0 7 4 18 10 NNE 70 0 0,0
23.06.2018 00:00:00 7,8 3,4 6,2 15,6 21,1 15,0 6 4 19 10 N 70 0 0,0
22.06.2018 23:00:00 8,3 3,4 7,0 16,8 21,4 15,0 9 5 21 11 N 70 0 0,0
22.06.2018 22:00:00 8,7 3,7 7,8 18,3 21,6 15,0 13 7 21 12 NW 70 0 0,0
22.06.2018 21:00:00 10,5 3,4 10,2 20,4 21,7 15,0 17 9 30 16 NW 70 36 0,0
22.06.2018 20:00:00 10,8 2,8 11,0 22,5 21,7 14,9 16 9 32 18 NW 70 24 0,0
22.06.2018 19:00:00 12,2 3,5 13,7 23,9 21,6 14,9 22 12 36 20 WNW 70 22 0,0
22.06.2018 18:00:00 12,1 3,6 13,1 25,7 21,3 14,9 18 10 39 21 NW 70 35 0,0
22.06.2018 17:00:00 14,0 2,7 16,9 26,0 21,1 14,9 13 7 37 20 NW 70 30 0,0
22.06.2018 16:00:00 12,8 3,7 15,7 25,4 20,8 14,9 19 11 35 19 NW 57 5 0,0
22.06.2018 15:00:00 13,5 3,8 16,4 28,1 20,3 14,9 19 10 35 19 WNW 64 37 0,0
22.06.2018 14:00:00 13,6 3,2 16,7 27,0 19,9 14,9 18 10 31 17 WNW 70 41 0,0
22.06.2018 13:00:00 13,5 4,3 18,7 26,5 19,5 14,9 14 8 33 18 WNW 43 58 0,0
22.06.2018 12:00:00 11,2 2,2 15,5 24,2 19,3 14,8 16 9 39 21 NW 36 58 0,0
22.06.2018 11:00:00 11,2 2,2 15,1 21,5 19,3 14,8 17 9 34 19 WNW 32 55 0,0
22.06.2018 10:00:00 9,5 2,9 13,2 19,2 19,4 14,8 15 8 26 14 NW 35 60 0,0
22.06.2018 09:00:00 7,6 2,2 10,8 16,4 19,6 14,8 9 5 18 10 NW 35 59 0,0
22.06.2018 08:00:00 6,1 2,3 8,3 14,1 20,0 14,8 8 4 20 11 NNW 27 58 0,0
22.06.2018 07:00:00 5,4 2,3 6,2 12,9 20,5 14,8 8 4 16 9 NNE 41 42 0,0
22.06.2018 06:00:00 4,5 2,2 3,5 13,0 20,9 14,8 8 4 16 9 NNE 36 0 0,0
22.06.2018 05:00:00 4,9 1,7 3,4 13,7 21,4 14,8 6 3 22 12 N 50 0 0,0
22.06.2018 04:00:00 5,7 1,5 4,6 14,5 21,9 14,8 9 5 24 13 NNE 60 0 0,0
22.06.2018 03:00:00 6,6 1,6 5,4 15,4 22,3 14,7 11 6 31 17 NNE 64 0 0,0
22.06.2018 02:00:00 7,4 1,8 6,3 16,5 22,7 14,7 14 8 39 21 N 68 0 0,0
22.06.2018 01:00:00 8,9 1,8 8,1 17,8 23,2 14,7 17 9 35 19 N 68 0 0,0
22.06.2018 00:00:00 10,5 2,4 10,0 19,1 23,5 14,7 17 9 35 19 NNE 58 0 0,0
21.06.2018 23:00:00 11,9 3,8 11,4 20,5 23,8 14,7 17 9 39 21 N 65 0 0,0
21.06.2018 22:00:00 13,8 8,3 13,3 21,9 24,1 14,7 18 10 44 24 NW 70 0 0,0
21.06.2018 21:00:00 15,1 9,7 14,8 23,7 24,2 14,7 23 13 46 25 WNW 70 6 0,0
21.06.2018 20:00:00 16,1 11,1 16,1 25,8 24,2 14,6 23 12 47 25 WNW 70 10 0,0
21.06.2018 19:00:00 19,0 12,0 20,6 27,9 24,0 14,6 24 13 43 23 WNW 43 22 0,0
21.06.2018 18:00:00 19,1 11,9 20,1 29,7 23,8 14,6 21 12 43 23 NW 53 38 0,0
21.06.2018 17:00:00 21,3 10,6 23,2 31,2 23,4 14,6 27 15 45 24 WNW 34 55 0,0
21.06.2018 16:00:00 21,6 10,2 24,3 31,1 23,0 14,6 28 15 45 25 WNW 32 50 0,0
21.06.2018 15:00:00 21,8 12,2 24,8 31,2 22,6 14,6 24 13 46 25 WNW 38 47 0,0
21.06.2018 14:00:00 22,8 12,9 26,1 31,2 22,2 14,6 23 12 49 26 WNW 29 51 0,0
21.06.2018 13:00:00 21,6 13,6 24,7 29,3 21,8 14,6 24 13 45 24 WNW 44 43 0,0
21.06.2018 12:00:00 22,0 13,8 25,1 29,1 21,5 14,5 22 12 39 21 WNW 39 45 0,0
21.06.2018 11:00:00 21,9 14,2 25,6 27,3 21,3 14,5 16 9 28 15 W 36 60 0,0
21.06.2018 10:00:00 20,5 14,0 24,2 24,6 21,3 14,5 13 7 21 12 WNW 45 59 0,0
21.06.2018 09:00:00 19,5 13,9 22,4 22,1 21,4 14,5 7 4 16 9 WNW 43 59 0,0
21.06.2018 08:00:00 19,2 14,4 21,0 19,8 21,7 14,5 6 3 22 12 W 28 57 0,0
21.06.2018 07:00:00 18,6 14,7 18,7 18,4 22,0 14,5 8 5 11 6 W 45 52 0,0
21.06.2018 06:00:00 16,9 14,6 12,8 18,3 22,3 14,5 5 3 8 4 W 33 0 0,0
21.06.2018 05:00:00 17,7 15,0 14,3 18,9 22,7 14,5 8 4 10 6 W 41 0 0,0
21.06.2018 04:00:00 17,5 14,6 14,5 19,5 23,0 14,5 5 3 10 5 W 37 0 0,0
21.06.2018 03:00:00 18,0 15,1 14,3 20,2 23,3 14,5 4 2 16 8 SSW 37 0 0,0
21.06.2018 02:00:00 18,5 12,9 16,7 20,9 23,7 14,5 12 6 15 8 SE 56 0 0,0
21.06.2018 01:00:00 18,1 12,8 16,7 21,7 24,0 14,5 14 8 18 10 SE 59 0 0,0
21.06.2018 00:00:00 18,7 12,8 17,7 22,6 24,2 14,4 15 8 19 10 ESE 60 0 0,0
20.06.2018 23:00:00 19,6 12,7 18,7 23,8 24,5 14,4 17 9 21 11 ESE 70 0 0,0
20.06.2018 22:00:00 20,4 13,0 19,3 25,4 24,5 14,4 14 8 18 10 ESE 70 0 0,0
20.06.2018 21:00:00 21,3 13,5 20,5 27,6 24,4 14,4 9 5 13 7 ESE 70 37 0,0
20.06.2018 20:00:00 23,8 12,9 24,2 30,4 24,2 14,4 8 5 14 8 ESE 70 56 0,0
20.06.2018 19:00:00 25,8 14,0 28,5 32,2 23,8 14,4 6 3 16 8 NE 70 47 0,0
20.06.2018 18:00:00 26,0 13,3 29,7 33,5 23,3 14,4 8 4 21 11 ENE 56 45 0,0
20.06.2018 17:00:00 25,0 12,9 26,8 33,9 22,7 14,4 9 5 19 10 NW 65 40 0,0
20.06.2018 16:00:00 25,6 12,7 30,3 34,6 22,1 14,4 9 5 17 9 WNW 70 55 0,0
20.06.2018 15:00:00 25,6 12,2 30,7 34,2 21,4 14,4 4 2 17 9 SSW 59 60 0,0
20.06.2018 14:00:00 24,3 13,0 28,8 32,8 20,8 14,4 9 5 20 11 NE 56 60 0,0
20.06.2018 13:00:00 23,3 10,5 29,0 31,0 20,3 14,3 8 4 24 13 ENE 56 60 0,0
20.06.2018 12:00:00 22,4 11,3 26,7 28,5 20,0 14,3 9 5 22 12 NE 54 60 0,0
20.06.2018 11:00:00 21,2 11,8 25,4 25,7 19,8 14,3 12 6 22 12 E 49 60 0,0
20.06.2018 10:00:00 20,2 11,7 23,7 22,8 19,8 14,3 12 7 26 14 E 49 60 0,0
20.06.2018 09:00:00 18,8 11,8 20,9 20,2 19,9 14,3 19 10 29 15 E 27 60 0,0
20.06.2018 08:00:00 17,9 11,8 19,0 18,0 20,1 14,3 16 9 27 15 E 44 60 0,0
20.06.2018 07:00:00 16,1 11,7 16,5 16,7 20,4 14,3 21 12 27 15 E 43 52 0,0
20.06.2018 06:00:00 14,9 11,6 13,8 16,7 20,7 14,3 20 11 26 14 E 45 0 0,0
20.06.2018 05:00:00 14,7 11,7 13,6 17,1 21,0 14,3 22 12 28 15 E 48 0 0,0
20.06.2018 04:00:00 14,9 11,8 14,0 17,6 21,4 14,3 22 12 31 17 E 50 0 0,0
20.06.2018 03:00:00 15,2 12,0 14,3 18,2 21,7 14,3 22 12 27 15 E 57 0 0,0
20.06.2018 02:00:00 15,2 12,1 14,4 18,8 22,0 14,3 18 10 24 13 E 53 0 0,0
20.06.2018 01:00:00 15,8 12,1 14,9 19,6 22,4 14,3 18 10 23 13 E 62 0 0,0
20.06.2018 00:00:00 16,3 11,6 15,3 20,5 22,7 14,3 16 9 21 11 E 70 0 0,0
19.06.2018 23:00:00 16,9 11,4 15,8 21,6 22,9 14,3 16 9 21 11 E 70 0 0,0
19.06.2018 22:00:00 17,3 10,8 16,2 23,1 23,0 14,3 14 7 16 9 E 70 1 0,0
19.06.2018 21:00:00 18,9 11,4 17,6 25,2 22,9 14,3 6 4 11 6 ENE 70 60 0,0
19.06.2018 20:00:00 20,9 11,3 20,3 28,2 22,7 14,2 5 3 16 9 ENE 70 60 0,0
19.06.2018 19:00:00 22,0 10,6 23,1 30,6 22,2 14,2 7 4 16 9 NNE 70 58 0,0
19.06.2018 18:00:00 22,5 12,0 25,2 32,5 21,6 14,2 7 4 19 10 N 70 56 0,0
19.06.2018 17:00:00 23,2 10,9 26,5 33,4 21,0 14,2 10 6 22 12 WNW 55 60 0,0
19.06.2018 16:00:00 21,9 12,2 26,7 33,4 20,3 14,2 5 3 23 12 E 57 60 0,0
19.06.2018 15:00:00 22,5 12,4 27,3 32,1 19,6 14,2 8 5 19 10 NW 37 54 0,0
19.06.2018 14:00:00 20,3 10,3 26,8 30,5 19,1 14,2 10 5 16 9 NW 45 49 0,0
19.06.2018 13:00:00 19,7 11,0 25,4 27,6 18,7 14,2 8 4 16 9 NW 64 36 0,0
19.06.2018 12:00:00 17,8 11,1 21,8 25,2 18,3 14,2 8 4 20 11 W 58 25 0,0
19.06.2018 11:00:00 18,4 10,8 23,9 24,5 18,1 14,2 9 5 19 10 WSW 47 59 0,0
19.06.2018 10:00:00 15,8 10,2 19,4 21,0 18,1 14,2 13 7 21 11 WNW 51 50 0,0
19.06.2018 09:00:00 15,1 11,4 17,6 18,2 18,2 14,2 7 4 12 7 WNW 52 5 0,0
19.06.2018 08:00:00 15,2 11,3 16,3 16,6 18,4 14,2 7 4 10 5 W 55 24 0,0
19.06.2018 07:00:00 13,3 11,1 13,4 14,9 18,6 14,2 8 4 13 7 NNW 49 16 0,0
19.06.2018 06:00:00 12,0 10,2 10,2 14,2 18,9 14,2 7 4 12 6 NNW 36 0 0,0
19.06.2018 05:00:00 12,1 9,8 10,2 14,7 19,2 14,2 7 4 13 7 NNW 40 0 0,0
19.06.2018 04:00:00 12,7 9,5 11,5 15,2 19,6 14,2 9 5 15 8 NNW 68 0 0,0
19.06.2018 03:00:00 13,0 9,4 11,5 15,5 19,9 14,2 9 5 15 8 NNW 70 0 0,0
19.06.2018 02:00:00 12,1 10,0 10,5 16,1 20,2 14,2 6 4 12 7 NE 35 0 0,0
19.06.2018 01:00:00 12,1 10,0 10,9 16,9 20,5 14,2 7 4 16 8 ENE 35 0 0,0
19.06.2018 00:00:00 13,4 10,4 12,3 17,8 20,8 14,2 9 5 16 9 NE 43 0 0,0
18.06.2018 23:00:00 12,8 9,6 12,0 18,8 21,0 14,2 5 3 14 7 NNE 50 0 0,0
18.06.2018 22:00:00 14,9 9,4 13,5 20,0 21,2 14,1 7 4 16 8 NW 65 0 0,0
18.06.2018 21:00:00 16,1 9,6 15,0 21,7 21,2 14,1 10 6 25 14 NW 70 47 0,0
18.06.2018 20:00:00 17,3 9,2 17,1 24,1 21,1 14,1 16 9 26 14 WNW 70 30 0,0
18.06.2018 19:00:00 19,0 9,2 19,2 25,6 20,8 14,1 9 5 23 13 NW 70 34 0,0
18.06.2018 18:00:00 19,9 10,2 22,0 27,4 20,4 14,1 11 6 21 11 W 54 37 0,0
18.06.2018 17:00:00 18,8 10,5 20,7 27,7 19,9 14,1 8 4 19 11 W 70 13 0,0
18.06.2018 16:00:00 20,5 10,4 24,0 29,1 19,4 14,1 10 5 19 10 WNW 53 38 0,0

tt = temperature
td = dewpoint
tt 5cm = temperature 5cm
tt -5cm = temperature -5cm
tt -20cm = temperature -20cm
tt -100cm = temperature -100cm
ff = wind speed
fx = gusts
dd = wind direction
vv = visibility
sd = sunshine duration
rr = precipitation

Next stations